createdAt,value
2022-10-21T00:00:08.042Z,1011.48
2022-10-21T00:01:08.037Z,1011.39
2022-10-21T00:02:08.077Z,1011.35
2022-10-21T00:03:08.032Z,1011.37
2022-10-21T00:04:08.042Z,1011.37
2022-10-21T00:05:08.034Z,1011.39
2022-10-21T00:06:08.029Z,1011.41
2022-10-21T00:07:08.032Z,1011.38
2022-10-21T00:08:08.029Z,1011.35
2022-10-21T00:09:08.097Z,1011.43
2022-10-21T00:10:08.029Z,1011.50
2022-10-21T00:11:08.029Z,1011.52
2022-10-21T00:12:08.030Z,1011.56
2022-10-21T00:13:08.021Z,1011.54
2022-10-21T00:14:08.024Z,1011.42
2022-10-21T00:15:08.017Z,1011.42
2022-10-21T00:16:08.023Z,1011.29
2022-10-21T00:17:08.016Z,1011.23
2022-10-21T00:18:08.041Z,1011.19
2022-10-21T00:19:08.015Z,1011.19
2022-10-21T00:20:08.015Z,1011.12
2022-10-21T00:21:08.012Z,1011.18
2022-10-21T00:22:08.014Z,1011.23
2022-10-21T00:23:08.008Z,1011.25
2022-10-21T00:24:08.008Z,1011.27
2022-10-21T00:25:08.010Z,1011.23
2022-10-21T00:26:08.003Z,1011.23
2022-10-21T00:27:08.003Z,1011.18
2022-10-21T00:28:08.006Z,1011.19
2022-10-21T00:29:08.105Z,1011.20
2022-10-21T00:30:08.006Z,1011.24
2022-10-21T00:31:08.003Z,1011.27
2022-10-21T00:32:07.999Z,1011.27
2022-10-21T00:33:07.997Z,1011.28
2022-10-21T00:34:08.029Z,1011.19
2022-10-21T00:35:07.999Z,1011.13
2022-10-21T00:36:08.020Z,1011.13
2022-10-21T00:37:07.999Z,1011.22
2022-10-21T00:38:07.990Z,1011.29
2022-10-21T00:39:07.995Z,1011.24
2022-10-21T00:40:07.988Z,1011.26
2022-10-21T00:41:07.989Z,1011.30
2022-10-21T00:42:07.987Z,1011.31
2022-10-21T00:43:07.983Z,1011.34
2022-10-21T00:44:07.983Z,1011.43
2022-10-21T00:45:07.980Z,1011.47
2022-10-21T00:46:07.982Z,1011.39
2022-10-21T00:47:07.981Z,1011.43
2022-10-21T00:48:07.979Z,1011.47
2022-10-21T00:49:07.978Z,1011.52
2022-10-21T00:50:08.001Z,1011.49
2022-10-21T00:51:07.984Z,1011.50
2022-10-21T00:52:07.972Z,1011.44
2022-10-21T00:53:07.972Z,1011.44
2022-10-21T00:54:07.980Z,1011.39
2022-10-21T00:55:07.969Z,1011.39
2022-10-21T00:56:08.514Z,1011.37
2022-10-21T00:57:07.967Z,1011.32
2022-10-21T00:58:07.968Z,1011.35
2022-10-21T00:59:07.971Z,1011.41
2022-10-21T01:00:07.963Z,1011.39
2022-10-21T01:01:08.052Z,1011.35
2022-10-21T01:02:07.963Z,1011.33
2022-10-21T01:03:07.963Z,1011.34
2022-10-21T01:04:07.956Z,1011.32
2022-10-21T01:05:07.960Z,1011.31
2022-10-21T01:06:07.976Z,1011.32
2022-10-21T01:07:07.954Z,1011.31
2022-10-21T01:08:07.952Z,1011.34
2022-10-21T01:09:08.095Z,1011.30
2022-10-21T01:10:07.951Z,1011.29
2022-10-21T01:11:07.950Z,1011.36
2022-10-21T01:12:07.948Z,1011.33
2022-10-21T01:13:07.948Z,1011.33
2022-10-21T01:14:07.947Z,1011.34
2022-10-21T01:15:07.946Z,1011.37
2022-10-21T01:16:07.941Z,1011.36
2022-10-21T01:17:20.645Z,1011.34
2022-10-21T01:18:07.940Z,1011.27
2022-10-21T01:19:07.939Z,1011.24
2022-10-21T01:20:07.941Z,1011.22
2022-10-21T01:21:07.938Z,1011.06
2022-10-21T01:22:07.961Z,1011.07
2022-10-21T01:23:07.935Z,1011.10
2022-10-21T01:24:07.945Z,1011.06
2022-10-21T01:25:07.935Z,1011.07
2022-10-21T01:26:07.935Z,1011.11
2022-10-21T01:27:07.929Z,1011.14
2022-10-21T01:28:07.928Z,1011.14
2022-10-21T01:29:07.930Z,1011.23
2022-10-21T01:30:07.926Z,1011.19
2022-10-21T01:31:07.923Z,1011.20
2022-10-21T01:32:07.925Z,1011.13
2022-10-21T01:33:07.999Z,1011.14
2022-10-21T01:34:07.925Z,1011.11
2022-10-21T01:35:07.923Z,1011.08
2022-10-21T01:36:07.922Z,1011.03
2022-10-21T01:37:07.921Z,1010.96
2022-10-21T01:38:07.948Z,1010.94
2022-10-21T01:39:07.914Z,1010.86
2022-10-21T01:40:07.919Z,1010.86
2022-10-21T01:41:07.917Z,1010.89
2022-10-21T01:42:07.916Z,1010.84
2022-10-21T01:43:07.914Z,1010.86
2022-10-21T01:44:07.913Z,1010.88
2022-10-21T01:45:07.909Z,1010.82
2022-10-21T01:46:07.910Z,1010.80
2022-10-21T01:47:07.912Z,1010.72
2022-10-21T01:48:07.910Z,1010.67
2022-10-21T01:49:07.908Z,1010.64
2022-10-21T01:50:07.907Z,1010.64
2022-10-21T01:51:07.905Z,1010.66
2022-10-21T01:52:07.904Z,1010.64
2022-10-21T01:53:07.901Z,1010.63
2022-10-21T01:54:07.922Z,1010.61
2022-10-21T01:55:07.898Z,1010.63
2022-10-21T01:56:07.900Z,1010.64
2022-10-21T01:57:07.900Z,1010.60
2022-10-21T01:58:07.901Z,1010.63
2022-10-21T01:59:07.894Z,1010.62
2022-10-21T02:00:07.892Z,1010.57
2022-10-21T02:01:07.924Z,1010.55
2022-10-21T02:02:07.892Z,1010.58
2022-10-21T02:03:07.889Z,1010.54
2022-10-21T02:04:07.892Z,1010.49
2022-10-21T02:05:07.890Z,1010.50
2022-10-21T02:06:07.883Z,1010.49
2022-10-21T02:07:07.881Z,1010.49
2022-10-21T02:08:07.887Z,1010.43
2022-10-21T02:09:07.997Z,1010.48
2022-10-21T02:10:07.896Z,1010.46
2022-10-21T02:11:07.880Z,1010.47
2022-10-21T02:12:07.883Z,1010.47
2022-10-21T02:13:07.875Z,1010.50
2022-10-21T02:14:07.882Z,1010.48
2022-10-21T02:15:07.874Z,1010.45
2022-10-21T02:16:07.879Z,1010.43
2022-10-21T02:17:07.877Z,1010.43
2022-10-21T02:18:07.868Z,1010.38
2022-10-21T02:19:07.869Z,1010.35
2022-10-21T02:20:07.867Z,1010.28
2022-10-21T02:21:07.871Z,1010.27
2022-10-21T02:22:07.866Z,1010.25
2022-10-21T02:23:07.867Z,1010.23
2022-10-21T02:24:07.865Z,1010.17
2022-10-21T02:25:07.864Z,1010.15
2022-10-21T02:26:07.884Z,1010.16
2022-10-21T02:27:07.860Z,1010.13
2022-10-21T02:28:07.857Z,1010.08
2022-10-21T02:29:07.862Z,1010.10
2022-10-21T02:30:07.858Z,1010.10
2022-10-21T02:31:07.856Z,1010.06
2022-10-21T02:32:07.856Z,1010.06
2022-10-21T02:33:07.860Z,1010.02
2022-10-21T02:34:07.853Z,1010.07
2022-10-21T02:35:07.855Z,1010.05
2022-10-21T02:36:07.852Z,1010.04
2022-10-21T02:37:07.853Z,1009.95
2022-10-21T02:38:07.852Z,1009.85
2022-10-21T02:39:07.846Z,1009.85
2022-10-21T02:40:07.849Z,1009.83
2022-10-21T02:41:07.848Z,1009.87
2022-10-21T02:42:07.864Z,1009.82
2022-10-21T02:43:07.840Z,1009.81
2022-10-21T02:44:07.838Z,1009.84
2022-10-21T02:45:07.838Z,1009.81
2022-10-21T02:46:07.844Z,1009.77
2022-10-21T02:47:07.904Z,1009.80
2022-10-21T02:48:07.843Z,1009.89
2022-10-21T02:49:07.836Z,1009.86
2022-10-21T02:50:07.837Z,1009.86
2022-10-21T02:51:07.835Z,1009.85
2022-10-21T02:52:07.832Z,1009.82
2022-10-21T02:53:07.835Z,1009.81
2022-10-21T02:54:07.830Z,1009.78
2022-10-21T02:55:07.829Z,1009.76
2022-10-21T02:56:07.829Z,1009.78
2022-10-21T02:57:07.826Z,1009.78
2022-10-21T02:58:07.847Z,1009.83
2022-10-21T02:59:07.825Z,1009.84
2022-10-21T03:00:07.825Z,1009.76
2022-10-21T03:01:07.902Z,1009.72
2022-10-21T03:02:07.826Z,1009.74
2022-10-21T03:03:07.818Z,1009.73
2022-10-21T03:04:07.824Z,1009.71
2022-10-21T03:05:07.819Z,1009.66
2022-10-21T03:06:07.823Z,1009.63
2022-10-21T03:07:07.816Z,1009.60
2022-10-21T03:08:07.814Z,1009.59
2022-10-21T03:09:07.814Z,1009.58
2022-10-21T03:10:07.814Z,1009.65
2022-10-21T03:11:07.811Z,1009.53
2022-10-21T03:12:07.809Z,1009.53
2022-10-21T03:13:07.811Z,1009.58
2022-10-21T03:14:07.835Z,1009.68
2022-10-21T03:15:07.807Z,1009.69
2022-10-21T03:16:07.855Z,1009.66
2022-10-21T03:17:07.805Z,1009.59
2022-10-21T03:18:07.811Z,1009.57
2022-10-21T03:19:07.802Z,1009.53
2022-10-21T03:20:07.807Z,1009.55
2022-10-21T03:21:07.803Z,1009.56
2022-10-21T03:22:07.803Z,1009.51
2022-10-21T03:23:07.801Z,1009.53
2022-10-21T03:24:15.187Z,1009.51
2022-10-21T03:25:07.796Z,1009.52
2022-10-21T03:26:07.797Z,1009.49
2022-10-21T03:27:07.789Z,1009.46
2022-10-21T03:28:07.788Z,1009.46
2022-10-21T03:29:07.792Z,1009.47
2022-10-21T03:30:07.818Z,1009.45
2022-10-21T03:31:07.794Z,1009.47
2022-10-21T03:32:07.787Z,1009.47
2022-10-21T03:33:07.789Z,1009.54
2022-10-21T03:34:07.787Z,1009.58
2022-10-21T03:35:07.791Z,1009.60
2022-10-21T03:36:07.788Z,1009.66
2022-10-21T03:37:07.785Z,1009.63
2022-10-21T03:38:07.783Z,1009.61
2022-10-21T03:39:07.787Z,1009.58
2022-10-21T03:40:11.431Z,1009.61
2022-10-21T03:41:07.780Z,1009.53
2022-10-21T03:42:07.778Z,1009.50
2022-10-21T03:43:07.783Z,1009.50
2022-10-21T03:44:07.777Z,1009.52
2022-10-21T03:45:07.778Z,1009.46
2022-10-21T03:46:07.795Z,1009.42
2022-10-21T03:47:07.772Z,1009.43
2022-10-21T03:48:07.775Z,1009.31
2022-10-21T03:49:14.648Z,1009.38
2022-10-21T03:50:11.919Z,1009.35
2022-10-21T03:51:07.772Z,1009.42
2022-10-21T03:52:07.770Z,1009.41
2022-10-21T03:53:18.591Z,1009.45
2022-10-21T03:54:07.768Z,1009.49
2022-10-21T03:55:07.766Z,1009.52
2022-10-21T03:56:07.764Z,1009.53
2022-10-21T03:57:07.766Z,1009.50
2022-10-21T03:58:07.764Z,1009.52
2022-10-21T03:59:07.762Z,1009.60
2022-10-21T04:00:07.846Z,1009.61
2022-10-21T04:01:07.760Z,1009.62
2022-10-21T04:02:07.877Z,1009.68
2022-10-21T04:03:07.754Z,1009.68
2022-10-21T04:04:07.753Z,1009.73
2022-10-21T04:05:07.754Z,1009.68
2022-10-21T04:06:07.757Z,1009.70
2022-10-21T04:07:07.752Z,1009.72
2022-10-21T04:08:07.750Z,1009.79
2022-10-21T04:09:07.822Z,1009.75
2022-10-21T04:10:07.752Z,1009.73
2022-10-21T04:11:07.750Z,1009.72
2022-10-21T04:12:07.744Z,1009.69
2022-10-21T04:13:07.745Z,1009.59
2022-10-21T04:14:11.522Z,1009.56
2022-10-21T04:15:07.746Z,1009.52
2022-10-21T04:16:07.745Z,1009.48
2022-10-21T04:17:08.108Z,1009.44
2022-10-21T04:18:07.764Z,1009.44
2022-10-21T04:19:07.746Z,1009.45
2022-10-21T04:20:07.740Z,1009.46
2022-10-21T04:21:07.736Z,1009.45
2022-10-21T04:22:07.739Z,1009.41
2022-10-21T04:23:07.738Z,1009.33
2022-10-21T04:24:07.733Z,1009.30
2022-10-21T04:25:07.736Z,1009.31
2022-10-21T04:26:07.730Z,1009.31
2022-10-21T04:27:07.730Z,1009.32
2022-10-21T04:28:07.733Z,1009.26
2022-10-21T04:29:07.729Z,1009.17
2022-10-21T04:30:07.728Z,1009.14
2022-10-21T04:31:07.728Z,1009.10
2022-10-21T04:32:07.727Z,1009.01
2022-10-21T04:33:07.731Z,1008.93
2022-10-21T04:34:07.755Z,1008.97
2022-10-21T04:35:07.724Z,1008.98
2022-10-21T04:36:07.724Z,1008.97
2022-10-21T04:37:07.721Z,1008.97
2022-10-21T04:38:07.720Z,1008.97
2022-10-21T04:39:07.717Z,1008.92
2022-10-21T04:40:07.717Z,1008.94
2022-10-21T04:41:07.718Z,1008.93
2022-10-21T04:42:07.712Z,1008.96
2022-10-21T04:43:07.715Z,1008.89
2022-10-21T04:44:07.714Z,1008.85
2022-10-21T04:45:07.713Z,1008.78
2022-10-21T04:46:09.983Z,1008.80
2022-10-21T04:47:07.715Z,1008.75
2022-10-21T04:48:07.712Z,1008.81
2022-10-21T04:49:07.709Z,1008.80
2022-10-21T04:50:07.728Z,1008.78
2022-10-21T04:51:07.706Z,1008.68
2022-10-21T04:52:07.704Z,1008.73
2022-10-21T04:53:07.717Z,1008.75
2022-10-21T04:54:07.701Z,1008.69
2022-10-21T04:55:07.704Z,1008.74
2022-10-21T04:56:07.705Z,1008.74
2022-10-21T04:57:07.704Z,1008.74
2022-10-21T04:58:07.701Z,1008.69
2022-10-21T04:59:07.696Z,1008.63
2022-10-21T05:00:07.696Z,1008.68
2022-10-21T05:01:07.735Z,1008.63
2022-10-21T05:02:07.705Z,1008.64
2022-10-21T05:03:07.698Z,1008.64
2022-10-21T05:04:07.693Z,1008.51
2022-10-21T05:05:07.691Z,1008.51
2022-10-21T05:06:07.741Z,1008.45
2022-10-21T05:07:07.691Z,1008.41
2022-10-21T05:08:11.470Z,1008.43
2022-10-21T05:09:07.757Z,1008.40
2022-10-21T05:10:07.685Z,1008.34
2022-10-21T05:11:07.682Z,1008.29
2022-10-21T05:12:07.684Z,1008.26
2022-10-21T05:13:07.684Z,1008.30
2022-10-21T05:14:07.680Z,1008.38
2022-10-21T05:15:07.684Z,1008.36
2022-10-21T05:16:07.682Z,1008.37
2022-10-21T05:17:07.679Z,1008.34
2022-10-21T05:18:07.676Z,1008.27
2022-10-21T05:19:07.675Z,1008.23
2022-10-21T05:20:07.674Z,1008.23
2022-10-21T05:21:07.675Z,1008.22
2022-10-21T05:22:07.692Z,1008.24
2022-10-21T05:23:07.667Z,1008.22
2022-10-21T05:24:07.671Z,1008.21
2022-10-21T05:25:07.674Z,1008.16
2022-10-21T05:26:07.669Z,1008.13
2022-10-21T05:27:07.669Z,1008.19
2022-10-21T05:28:07.665Z,1008.18
2022-10-21T05:29:07.660Z,1008.23
2022-10-21T05:30:07.661Z,1008.30
2022-10-21T05:31:07.665Z,1008.32
2022-10-21T05:32:07.661Z,1008.31
2022-10-21T05:33:07.664Z,1008.26
2022-10-21T05:34:07.759Z,1008.25
2022-10-21T05:35:07.659Z,1008.22
2022-10-21T05:36:07.670Z,1008.23
2022-10-21T05:37:07.661Z,1008.24
2022-10-21T05:38:07.675Z,1008.25
2022-10-21T05:39:07.654Z,1008.23
2022-10-21T05:40:07.656Z,1008.27
2022-10-21T05:41:07.651Z,1008.21
2022-10-21T05:42:07.650Z,1008.22
2022-10-21T05:43:07.657Z,1008.24
2022-10-21T05:44:07.646Z,1008.24
2022-10-21T05:45:07.646Z,1008.22
2022-10-21T05:46:07.647Z,1008.24
2022-10-21T05:47:07.650Z,1008.24
2022-10-21T05:48:07.647Z,1008.28
2022-10-21T05:49:07.670Z,1008.28
2022-10-21T05:50:07.647Z,1008.27
2022-10-21T05:51:07.643Z,1008.28
2022-10-21T05:52:07.640Z,1008.26
2022-10-21T05:53:07.638Z,1008.23
2022-10-21T05:54:07.657Z,1008.23
2022-10-21T05:55:07.636Z,1008.24
2022-10-21T05:56:07.634Z,1008.24
2022-10-21T05:57:07.637Z,1008.23
2022-10-21T05:58:07.639Z,1008.24
2022-10-21T05:59:10.081Z,1008.22
2022-10-21T06:00:07.638Z,1008.27
2022-10-21T06:01:07.698Z,1008.21
2022-10-21T06:02:07.632Z,1008.23
2022-10-21T06:03:07.635Z,1008.18
2022-10-21T06:04:07.632Z,1008.19
2022-10-21T06:05:07.624Z,1008.13
2022-10-21T06:06:07.618Z,1008.16
2022-10-21T06:07:07.623Z,1008.13
2022-10-21T06:08:07.628Z,1008.15
2022-10-21T06:09:07.691Z,1008.15
2022-10-21T06:10:07.646Z,1008.13
2022-10-21T06:11:07.628Z,1008.16
2022-10-21T06:12:07.624Z,1008.14
2022-10-21T06:13:07.630Z,1008.07
2022-10-21T06:14:07.611Z,1008.04
2022-10-21T06:15:07.618Z,1008.02
2022-10-21T06:16:07.629Z,1008.03
2022-10-21T06:17:07.614Z,1008.08
2022-10-21T06:18:07.613Z,1008.08
2022-10-21T06:19:07.610Z,1008.08
2022-10-21T06:20:07.612Z,1008.10
2022-10-21T06:21:07.615Z,1008.14
2022-10-21T06:22:07.607Z,1008.12
2022-10-21T06:23:07.608Z,1008.11
2022-10-21T06:24:07.608Z,1008.15
2022-10-21T06:25:07.687Z,1008.19
2022-10-21T06:26:07.632Z,1008.22
2022-10-21T06:27:07.605Z,1008.20
2022-10-21T06:28:07.603Z,1008.22
2022-10-21T06:29:07.597Z,1008.28
2022-10-21T06:30:07.598Z,1008.27
2022-10-21T06:31:07.598Z,1008.31
2022-10-21T06:32:07.600Z,1008.30
2022-10-21T06:33:07.596Z,1008.26
2022-10-21T06:34:07.676Z,1008.28
2022-10-21T06:35:07.599Z,1008.20
2022-10-21T06:36:07.598Z,1008.16
2022-10-21T06:37:07.596Z,1008.17
2022-10-21T06:38:07.594Z,1008.10
2022-10-21T06:39:07.594Z,1008.15
2022-10-21T06:40:07.590Z,1008.18
2022-10-21T06:41:10.597Z,1008.22
2022-10-21T06:42:07.610Z,1008.20
2022-10-21T06:43:07.593Z,1008.21
2022-10-21T06:44:07.588Z,1008.17
2022-10-21T06:45:07.587Z,1008.21
2022-10-21T06:46:07.583Z,1008.24
2022-10-21T06:47:07.586Z,1008.29
2022-10-21T06:48:07.584Z,1008.30
2022-10-21T06:49:07.586Z,1008.34
2022-10-21T06:50:07.579Z,1008.33
2022-10-21T06:51:07.578Z,1008.38
2022-10-21T06:52:07.576Z,1008.45
2022-10-21T06:53:07.582Z,1008.43
2022-10-21T06:54:07.586Z,1008.39
2022-10-21T06:55:07.586Z,1008.34
2022-10-21T06:56:07.577Z,1008.30
2022-10-21T06:57:07.572Z,1008.31
2022-10-21T06:58:07.587Z,1008.31
2022-10-21T06:59:07.576Z,1008.27
2022-10-21T07:00:07.571Z,1008.32
2022-10-21T07:01:16.503Z,1008.29
2022-10-21T07:02:07.573Z,1008.25
2022-10-21T07:03:07.566Z,1008.26
2022-10-21T07:04:07.568Z,1008.24
2022-10-21T07:05:07.568Z,1008.27
2022-10-21T07:06:07.559Z,1008.30
2022-10-21T07:07:07.569Z,1008.35
2022-10-21T07:08:10.549Z,1008.29
2022-10-21T07:09:07.606Z,1008.29
2022-10-21T07:10:07.553Z,1008.31
2022-10-21T07:11:07.562Z,1008.31
2022-10-21T07:12:07.556Z,1008.28
2022-10-21T07:13:07.557Z,1008.26
2022-10-21T07:14:07.581Z,1008.30
2022-10-21T07:15:07.557Z,1008.27
2022-10-21T07:16:07.554Z,1008.28
2022-10-21T07:17:07.557Z,1008.30
2022-10-21T07:18:07.551Z,1008.31
2022-10-21T07:19:07.551Z,1008.30
2022-10-21T07:20:07.548Z,1008.33
2022-10-21T07:21:07.550Z,1008.35
2022-10-21T07:22:07.558Z,1008.34
2022-10-21T07:23:07.545Z,1008.39
2022-10-21T07:24:07.550Z,1008.39
2022-10-21T07:25:07.548Z,1008.38
2022-10-21T07:26:07.546Z,1008.37
2022-10-21T07:27:07.542Z,1008.37
2022-10-21T07:28:07.545Z,1008.43
2022-10-21T07:29:07.546Z,1008.44
2022-10-21T07:30:07.555Z,1008.41
2022-10-21T07:31:07.540Z,1008.43
2022-10-21T07:32:07.539Z,1008.46
2022-10-21T07:33:07.539Z,1008.50
2022-10-21T07:34:07.541Z,1008.47
2022-10-21T07:35:07.535Z,1008.48
2022-10-21T07:36:07.536Z,1008.46
2022-10-21T07:37:07.534Z,1008.50
2022-10-21T07:38:07.530Z,1008.49
2022-10-21T07:39:07.532Z,1008.49
2022-10-21T07:40:07.527Z,1008.41
2022-10-21T07:41:07.528Z,1008.43
2022-10-21T07:42:07.528Z,1008.43
2022-10-21T07:43:07.596Z,1008.43
2022-10-21T07:44:07.526Z,1008.45
2022-10-21T07:45:07.527Z,1008.49
2022-10-21T07:46:07.554Z,1008.47
2022-10-21T07:47:07.527Z,1008.49
2022-10-21T07:48:07.523Z,1008.47
2022-10-21T07:49:07.521Z,1008.50
2022-10-21T07:50:07.523Z,1008.49
2022-10-21T07:51:07.522Z,1008.52
2022-10-21T07:52:07.562Z,1008.52
2022-10-21T07:53:12.453Z,1008.50
2022-10-21T07:54:07.508Z,1008.49
2022-10-21T07:55:07.513Z,1008.51
2022-10-21T07:56:07.522Z,1008.47
2022-10-21T07:57:07.513Z,1008.48
2022-10-21T07:58:07.514Z,1008.47
2022-10-21T07:59:12.474Z,1008.49
2022-10-21T08:00:07.510Z,1008.47
2022-10-21T08:01:07.624Z,1008.50
2022-10-21T08:02:07.535Z,1008.47
2022-10-21T08:03:07.512Z,1008.43
2022-10-21T08:04:07.507Z,1008.39
2022-10-21T08:05:07.510Z,1008.41
2022-10-21T08:06:07.504Z,1008.32
2022-10-21T08:07:10.309Z,1008.31
2022-10-21T08:08:07.507Z,1008.26
2022-10-21T08:09:07.671Z,1008.24
2022-10-21T08:10:07.497Z,1008.24
2022-10-21T08:11:07.506Z,1008.20
2022-10-21T08:12:10.376Z,1008.21
2022-10-21T08:13:07.503Z,1008.17
2022-10-21T08:14:07.503Z,1008.21
2022-10-21T08:15:07.501Z,1008.24
2022-10-21T08:16:07.499Z,1008.24
2022-10-21T08:17:07.497Z,1008.29
2022-10-21T08:18:07.516Z,1008.27
2022-10-21T08:19:07.494Z,1008.25
2022-10-21T08:20:07.500Z,1008.30
2022-10-21T08:21:07.508Z,1008.32
2022-10-21T08:22:07.491Z,1008.34
2022-10-21T08:23:07.490Z,1008.35
2022-10-21T08:24:07.492Z,1008.33
2022-10-21T08:25:07.488Z,1008.38
2022-10-21T08:26:07.488Z,1008.39
2022-10-21T08:27:07.483Z,1008.37
2022-10-21T08:28:07.488Z,1008.37
2022-10-21T08:29:07.484Z,1008.39
2022-10-21T08:30:07.494Z,1008.38
2022-10-21T08:31:07.481Z,1008.46
2022-10-21T08:32:07.482Z,1008.44
2022-10-21T08:33:07.482Z,1008.48
2022-10-21T08:34:07.502Z,1008.47
2022-10-21T08:35:07.482Z,1008.50
2022-10-21T08:36:07.483Z,1008.54
2022-10-21T08:37:07.485Z,1008.45
2022-10-21T08:39:07.479Z,1008.45
2022-10-21T08:40:07.481Z,1008.41
2022-10-21T08:41:07.484Z,1008.40
2022-10-21T08:42:07.485Z,1008.38
2022-10-21T08:43:07.519Z,1008.31
2022-10-21T08:44:07.485Z,1008.33
2022-10-21T08:45:07.482Z,1008.32
2022-10-21T08:46:07.479Z,1008.25
2022-10-21T08:48:07.480Z,1008.23
2022-10-21T08:49:07.475Z,1008.19
2022-10-21T08:50:07.513Z,1008.21
2022-10-21T08:51:07.475Z,1008.13
2022-10-21T08:52:07.488Z,1008.20
2022-10-21T08:53:07.476Z,1008.17
2022-10-21T08:54:07.470Z,1008.13
2022-10-21T08:55:07.476Z,1008.12
2022-10-21T08:56:07.543Z,1008.16
2022-10-21T08:57:07.470Z,1008.15
2022-10-21T08:58:07.477Z,1008.15
2022-10-21T08:59:07.475Z,1008.13
2022-10-21T09:00:07.475Z,1008.08
2022-10-21T09:01:07.469Z,1008.07
2022-10-21T09:02:07.473Z,1008.07
2022-10-21T09:03:07.523Z,1008.03
2022-10-21T09:04:07.478Z,1008.02
2022-10-21T09:05:07.469Z,1008.01
2022-10-21T09:06:07.508Z,1008.05
2022-10-21T09:07:07.475Z,1007.98
2022-10-21T09:08:07.472Z,1007.97
2022-10-21T09:09:07.530Z,1007.95
2022-10-21T09:10:07.470Z,1008.00
2022-10-21T09:11:07.471Z,1007.96
2022-10-21T09:12:07.469Z,1008.07
2022-10-21T09:13:07.469Z,1008.05
2022-10-21T09:14:07.464Z,1008.05
2022-10-21T09:15:11.166Z,1008.04
2022-10-21T09:16:07.486Z,1007.96
2022-10-21T09:17:07.474Z,1007.97
2022-10-21T09:18:07.466Z,1007.98
2022-10-21T09:19:07.469Z,1007.94
2022-10-21T09:20:07.462Z,1007.97
2022-10-21T09:21:07.468Z,1007.93
2022-10-21T09:22:33.179Z,1007.89
2022-10-21T09:23:07.466Z,1007.89
2022-10-21T09:24:07.466Z,1007.85
2022-10-21T09:25:07.468Z,1007.88
2022-10-21T09:26:07.463Z,1007.83
2022-10-21T09:27:07.462Z,1007.86
2022-10-21T09:28:07.466Z,1007.83
2022-10-21T09:29:07.463Z,1007.79
2022-10-21T09:30:07.467Z,1007.78
2022-10-21T09:31:07.464Z,1007.79
2022-10-21T09:32:07.463Z,1007.86
2022-10-21T09:33:07.456Z,1007.84
2022-10-21T09:34:07.461Z,1007.89
2022-10-21T09:35:07.458Z,1007.92
2022-10-21T09:36:07.465Z,1007.95
2022-10-21T09:37:07.460Z,1007.93
2022-10-21T09:38:07.487Z,1007.95
2022-10-21T09:39:07.462Z,1007.96
2022-10-21T09:40:07.460Z,1007.94
2022-10-21T09:41:07.467Z,1007.94
2022-10-21T09:42:13.403Z,1008.17
2022-10-21T09:43:07.462Z,1008.04
2022-10-21T09:44:07.458Z,1007.98
2022-10-21T09:45:07.471Z,1008.02
2022-10-21T09:46:07.461Z,1008.35
2022-10-21T09:47:07.459Z,1008.55
2022-10-21T09:48:07.462Z,1008.56
2022-10-21T09:49:36.770Z,1008.60
2022-10-21T09:50:08.303Z,1008.83
2022-10-21T09:51:07.461Z,1008.89
2022-10-21T09:52:07.467Z,1008.39
2022-10-21T09:53:07.460Z,1008.72
2022-10-21T09:54:07.479Z,1008.28
2022-10-21T09:55:07.467Z,1008.14
2022-10-21T09:56:07.459Z,1008.30
2022-10-21T09:57:07.465Z,1008.22
2022-10-21T09:58:07.466Z,1008.35
2022-10-21T09:59:07.976Z,1008.60
2022-10-21T10:00:11.053Z,1009.20
2022-10-21T10:01:07.463Z,1009.34
2022-10-21T10:02:07.568Z,1009.43
2022-10-21T10:03:07.465Z,1009.29
2022-10-21T10:04:07.469Z,1009.27
2022-10-21T10:05:07.469Z,1008.85
2022-10-21T10:06:07.472Z,1008.49
2022-10-21T10:07:07.471Z,1008.37
2022-10-21T10:08:07.476Z,1008.20
2022-10-21T10:09:07.490Z,1008.04
2022-10-21T10:10:07.507Z,1007.93
2022-10-21T10:11:07.473Z,1007.87
2022-10-21T10:12:07.480Z,1007.94
2022-10-21T10:13:07.479Z,1007.95
2022-10-21T10:14:07.481Z,1007.93
2022-10-21T10:15:07.482Z,1007.90
2022-10-21T10:16:07.484Z,1007.88
2022-10-21T10:17:07.484Z,1007.91
2022-10-21T10:18:07.489Z,1007.86
2022-10-21T10:19:07.485Z,1007.91
2022-10-21T10:20:07.496Z,1007.91
2022-10-21T10:21:07.493Z,1008.02
2022-10-21T10:22:10.279Z,1008.20
2022-10-21T10:23:07.495Z,1009.05
2022-10-21T10:24:07.496Z,1009.18
2022-10-21T10:25:07.498Z,1009.28
2022-10-21T10:26:07.528Z,1009.24
2022-10-21T10:27:07.499Z,1008.66
2022-10-21T10:28:07.504Z,1008.54
2022-10-21T10:29:07.499Z,1008.46
2022-10-21T10:30:07.509Z,1008.98
2022-10-21T10:31:07.510Z,1008.70
2022-10-21T10:32:07.512Z,1008.37
2022-10-21T10:33:07.517Z,1008.35
2022-10-21T10:34:07.517Z,1008.15
2022-10-21T10:35:07.527Z,1007.89
2022-10-21T10:36:09.567Z,1008.13
2022-10-21T10:37:07.526Z,1008.10
2022-10-21T10:38:07.526Z,1008.09
2022-10-21T10:39:07.529Z,1008.15
2022-10-21T10:40:07.534Z,1008.17
2022-10-21T10:41:07.535Z,1008.17
2022-10-21T10:42:07.650Z,1008.21
2022-10-21T10:43:07.543Z,1008.34
2022-10-21T10:44:07.546Z,1008.33
2022-10-21T10:45:07.549Z,1008.21
2022-10-21T10:46:07.553Z,1008.17
2022-10-21T10:47:07.563Z,1008.18
2022-10-21T10:48:07.558Z,1008.53
2022-10-21T10:49:07.568Z,1008.67
2022-10-21T10:50:07.564Z,1008.63
2022-10-21T10:51:07.567Z,1008.42
2022-10-21T10:52:07.574Z,1008.50
2022-10-21T10:53:07.577Z,1008.74
2022-10-21T10:54:07.582Z,1008.57
2022-10-21T10:55:07.586Z,1008.33
2022-10-21T10:56:07.592Z,1008.23
2022-10-21T10:57:07.593Z,1008.32
2022-10-21T10:58:11.665Z,1008.42
2022-10-21T10:59:07.604Z,1008.46
2022-10-21T11:00:07.618Z,1008.41
2022-10-21T11:01:07.655Z,1008.64
2022-10-21T11:02:07.621Z,1008.64
2022-10-21T11:03:07.620Z,1008.61
2022-10-21T11:04:07.633Z,1008.62
2022-10-21T11:05:07.640Z,1008.45
2022-10-21T11:06:07.641Z,1008.22
2022-10-21T11:07:07.650Z,1008.55
2022-10-21T11:08:07.659Z,1008.71
2022-10-21T11:09:07.775Z,1008.66
2022-10-21T11:10:07.670Z,1008.67
2022-10-21T11:11:07.676Z,1008.69
2022-10-21T11:12:07.682Z,1008.64
2022-10-21T11:13:07.696Z,1008.36
2022-10-21T11:14:07.823Z,1008.29
2022-10-21T11:15:07.706Z,1008.17
2022-10-21T11:16:07.717Z,1008.11
2022-10-21T11:17:07.729Z,1008.04
2022-10-21T11:18:24.173Z,1008.00
2022-10-21T11:19:07.743Z,1007.92
2022-10-21T11:20:07.761Z,1007.81
2022-10-21T11:21:07.764Z,1007.67
2022-10-21T11:22:07.772Z,1007.63
2022-10-21T11:24:07.797Z,1007.60
2022-10-21T11:25:07.795Z,1007.43
2022-10-21T11:26:07.809Z,1007.34
2022-10-21T11:27:07.818Z,1007.30
2022-10-21T11:28:07.825Z,1007.42
2022-10-21T11:29:07.847Z,1007.39
2022-10-21T11:30:07.960Z,1007.43
2022-10-21T11:31:07.861Z,1007.35
2022-10-21T11:32:11.442Z,1007.48
2022-10-21T11:33:07.869Z,1007.47
2022-10-21T11:34:12.703Z,1007.61
2022-10-21T11:35:07.884Z,1007.69
2022-10-21T11:36:07.896Z,1007.68
2022-10-21T11:37:07.907Z,1007.71
2022-10-21T11:38:07.908Z,1007.61
2022-10-21T11:39:07.917Z,1007.68
2022-10-21T11:40:07.926Z,1007.52
2022-10-21T11:41:08.035Z,1007.57
2022-10-21T11:42:07.942Z,1007.56
2022-10-21T11:43:07.954Z,1007.57
2022-10-21T11:44:07.957Z,1007.65
2022-10-21T11:45:07.966Z,1007.62
2022-10-21T11:46:08.143Z,1007.55
2022-10-21T11:47:07.977Z,1007.44
2022-10-21T11:48:07.995Z,1007.32
2022-10-21T11:49:07.989Z,1007.32
2022-10-21T11:50:08.161Z,1007.31
2022-10-21T11:51:10.420Z,1007.22
2022-10-21T11:52:08.019Z,1007.19
2022-10-21T11:53:08.024Z,1007.20
2022-10-21T11:54:08.031Z,1007.26
2022-10-21T11:55:10.339Z,1007.23
2022-10-21T11:56:08.047Z,1007.27
2022-10-21T11:57:08.051Z,1007.32
2022-10-21T11:58:08.059Z,1007.34
2022-10-21T11:59:08.063Z,1007.36
2022-10-21T12:00:08.157Z,1007.55
2022-10-21T12:01:08.079Z,1007.70
2022-10-21T12:02:08.249Z,1007.53
2022-10-21T12:03:08.091Z,1007.37
2022-10-21T12:04:08.099Z,1007.34
2022-10-21T12:05:08.109Z,1007.30
2022-10-21T12:06:08.114Z,1007.27
2022-10-21T12:07:11.183Z,1007.29
2022-10-21T12:08:08.128Z,1007.21